Les Masies de Roda





Hora UTC 17:15
Temperatura 30.4 ºC
Sòl 15 cm 32.1 ºC
Subsòl 10 cm 33.3 ºC
Humitat 42.0 %
Pressió 1017.1 hPa
Pluja 0.0 mm
Velocitat vent 9.7 km/h
Direcció vent SSW
Radiació solar 309.8 W/m²

Dades diàries 2020-07-05



Hora UTC (hivern +1h; estiu +2h)
Temperatura (ºC) Humitat (%) Pressió (hPa) Velocitat vent (km/h) Precipitació (mm) Radiació solar (W/m²)
Hora UTC Aire Sòl 15 cm Subsòl 10 cm Humitat Pressió Vel. Dir. Vel. Max Dir. Intent. màx 5 min. Rad. Sol.
00:05 17.9 15.9 19.6 94.9 1021.7 0.0 NNE 0.0 NNW 0.0 0.1
00:10 17.7 15.8 19.6 94.8 1021.7 0.0 NNE 0.0 NNW 0.0 0.1
00:15 17.7 15.6 19.5 95.1 1021.6 0.0 NNE 0.0 NNW 0.0 0.1
00:20 17.5 15.5 19.5 95.1 1021.5 0.0 NNE 0.0 NNW 0.0 0.1
00:25 17.4 15.4 19.4 94.9 1021.5 0.0 NNE 0.0 NNW 0.0 0.1
00:30 17.2 15.2 19.3 95.0 1021.4 0.0 NNE 0.0 NNW 0.0 0.1
00:35 17.4 15.2 19.3 95.7 1021.4 0.0 NNE 0.0 NNW 0.0 0.1
00:40 17.4 15.4 19.3 95.5 1021.4 0.0 NNE 0.0 NNW 0.0 0.1
00:45 17.1 15.5 19.2 95.3 1021.4 0.0 NNE 0.0 NNW 0.0 0.1
00:50 17.1 15.3 19.2 95.7 1021.3 0.0 NNE 0.0 NNW 0.0 0.1
00:55 17.2 15.4 19.2 95.7 1021.3 0.0 NNE 0.0 NNW 0.0 0.1
01:00 16.9 15.1 19.1 95.5 1021.2 0.0 NNE 0.0 NNW 0.0 0.1
01:05 16.9 14.9 19.0 95.8 1021.2 0.0 NNE 0.0 NNW 0.0 0.1
01:10 16.9 14.9 18.9 95.9 1021.1 0.0 NNE 0.0 NNW 0.0 0.1
01:15 16.8 15.0 18.9 95.9 1021.1 0.0 NNE 0.0 NNW 0.0 0.1
01:20 16.8 14.9 18.9 96.0 1021.0 0.0 NNE 0.0 NNW 0.0 0.1
01:25 16.8 15.1 18.8 96.1 1021.0 0.0 NNE 0.0 NNW 0.0 0.1
01:30 16.6 14.8 18.8 96.1 1021.0 0.0 NNE 0.0 NNW 0.0 0.1
01:35 16.7 14.7 18.7 96.6 1021.0 0.0 NNE 0.0 NNW 0.0 0.1
01:40 16.8 14.9 18.7 96.7 1020.9 0.0 NNE 0.0 NNW 0.0 0.1
01:45 16.4 14.8 18.6 96.2 1020.8 0.0 NNE 0.0 NNW 0.0 0.1
01:50 16.3 14.6 18.6 96.5 1020.8 0.0 NNE 0.0 NW 0.0 0.1
01:55 16.5 14.7 18.5 96.9 1020.7 0.0 NNE 0.0 NW 0.0 0.1
02:00 16.5 14.7 18.5 97.0 1020.7 0.0 NNE 0.0 NW 0.0 0.1
02:05 16.4 14.7 18.4 96.9 1020.7 0.0 NNE 0.0 NW 0.0 0.1
02:10 16.4 14.7 18.4 96.9 1020.7 0.0 NNE 0.0 NW 0.0 0.1
02:15 16.3 14.6 18.3 97.1 1020.7 0.0 NNE 0.0 NW 0.0 0.1
02:20 16.4 14.6 18.3 97.0 1020.6 0.0 NNE 0.0 SE 0.0 0.1
02:25 16.3 14.4 18.2 97.0 1020.6 1.2 S 6.1 S 0.0 0.1
02:30 16.5 14.5 18.2 97.2 1020.5 0.0 NNE 0.0 SSE 0.0 0.1
02:35 16.5 14.6 18.2 96.6 1020.5 0.0 NNE 0.0 S 0.0 0.1
02:40 16.4 14.6 18.1 96.6 1020.5 0.0 NNE 0.0 SE 0.0 0.1
02:45 16.5 14.7 18.1 96.6 1020.5 0.4 SSW 6.1 S 0.0 0.1
02:50 16.4 14.8 18.1 96.2 1020.5 0.0 NNE 0.0 SSW 0.0 0.1
02:55 16.2 14.6 18.0 95.8 1020.4 0.0 NNE 0.0 SW 0.0 0.1
03:00 16.0 14.4 18.0 95.6 1020.5 0.0 NNE 0.0 WSW 0.0 0.1
03:05 15.9 14.2 17.9 95.8 1020.5 0.0 NNE 0.0 NW 0.0 0.1
03:10 15.8 14.1 17.8 96.1 1020.5 0.0 NNE 0.0 NW 0.0 0.1
03:15 15.9 14.2 17.8 96.4 1020.6 0.0 NNE 0.0 NW 0.0 0.1
03:20 15.8 14.0 17.8 96.5 1020.5 0.0 NNE 0.0 NW 0.0 0.1
03:25 15.9 13.9 17.8 96.8 1020.5 0.0 NNE 0.0 NW 0.0 0.1
03:30 15.6 13.9 17.7 96.6 1020.5 0.0 NNE 0.0 NW 0.0 0.1
03:35 15.6 14.0 17.7 96.7 1020.5 0.0 NNE 0.0 NW 0.0 0.1
03:40 15.7 14.1 17.7 97.2 1020.5 0.0 NNE 0.0 NW 0.0 0.1
03:45 15.9 14.3 17.8 97.6 1020.6 0.0 NNE 0.0 NW 0.0 0.1
03:50 16.0 14.7 17.9 97.7 1020.6 0.0 NNE 0.0 NE 0.0 0.1
03:55 15.9 14.9 18.0 97.8 1020.7 0.0 NNE 0.0 NE 0.0 0.1
04:00 15.8 14.9 18.0 98.0 1020.7 0.0 NNE 0.0 NNE 0.0 0.2
04:05 15.8 15.0 18.0 98.1 1020.7 0.0 NNE 0.0 NNE 0.0 0.4
04:10 16.0 15.2 18.1 98.3 1020.7 0.0 NNE 0.0 NNE 0.0 0.8
04:15 16.0 15.3 18.2 98.3 1020.6 0.0 NNE 0.0 NNE 0.0 1.6
04:20 16.0 15.3 18.2 98.3 1020.6 0.0 NNE 0.0 NNE 0.0 2.9
04:25 16.1 15.3 18.2 98.5 1020.7 0.0 NNE 0.0 NNE 0.0 4.3
04:30 16.2 15.3 18.2 98.5 1020.7 0.0 NNE 0.0 SSW 0.0 5.9
04:35 16.1 15.2 18.2 98.3 1020.7 0.0 NNE 0.0 SSW 0.0 7.1
04:40 16.0 15.1 18.2 98.3 1020.7 0.0 NNE 0.0 W 0.0 8.5
04:45 15.9 15.1 18.2 98.3 1020.7 0.0 NNE 0.0 W 0.0 10.4
04:50 15.9 15.1 18.2 98.4 1020.7 0.0 NNE 0.0 W 0.0 12.7
04:55 15.9 15.2 18.2 98.5 1020.7 0.0 NNE 0.0 W 0.0 14.6
05:00 16.0 15.3 18.2 98.5 1020.7 0.0 NNE 0.0 W 0.0 21.0
05:05 16.0 15.5 18.3 98.5 1020.8 0.0 NNE 0.0 W 0.0 22.3
05:10 16.1 15.5 18.4 98.5 1020.8 0.0 NNE 0.0 W 0.0 24.6
05:15 16.2 15.6 18.4 98.5 1020.8 0.0 NNE 0.0 W 0.0 31.5
05:20 16.2 15.5 18.4 98.4 1020.8 0.0 NNE 0.0 W 0.0 33.9
05:25 16.2 15.5 18.4 98.4 1020.8 0.0 NNE 0.0 W 0.0 35.6
05:30 16.2 15.6 18.5 98.4 1020.8 0.0 NNE 0.0 W 0.0 33.6
05:35 16.3 15.6 18.5 98.3 1020.8 0.0 NNE 0.0 W 0.0 33.3
05:40 16.2 15.5 18.4 98.2 1020.8 0.0 NNE 0.0 W 0.0 34.9
05:45 16.2 15.4 18.4 98.0 1020.8 0.0 NNE 0.0 S 0.0 47.6
05:50 16.3 15.6 18.4 98.0 1020.8 0.0 NNE 0.0 WSW 0.0 75.8
05:55 16.5 15.9 18.6 98.0 1020.8 0.0 NNE 0.0 SW 0.0 81.0
06:00 16.5 16.2 18.7 97.8 1020.9 0.0 NNE 0.0 W 0.0 80.3
06:05 16.6 16.3 18.8 97.7 1020.9 0.0 NNE 0.0 W 0.0 60.3
06:10 16.6 16.5 18.9 97.7 1020.9 0.0 NNE 0.0 W 0.0 72.2
06:15 16.7 16.8 19.1 97.7 1020.9 0.0 NNE 0.0 W 0.0 97.5
06:20 16.9 17.2 19.3 97.7 1020.9 0.0 NNE 0.0 W 0.0 117.2
06:25 17.0 17.3 19.5 97.4 1021.0 0.0 NNE 0.0 W 0.0 106.8
06:30 17.0 17.4 19.7 97.1 1021.0 0.0 NNE 0.0 W 0.0 108.8
06:35 17.1 17.4 19.8 96.6 1021.0 0.0 NNE 0.0 WNW 0.0 100.4
06:40 17.1 17.3 19.8 96.1 1021.0 0.0 NNE 0.0 WNW 0.0 103.0
06:45 17.3 17.1 19.8 95.8 1021.0 0.0 NNE 0.0 WNW 0.0 111.5
06:50 17.5 17.4 20.0 95.3 1021.1 0.0 NNE 0.0 NE 0.0 229.0
06:55 18.0 18.0 20.5 94.7 1021.1 0.0 NNE 0.0 N 0.0 304.4
07:00 18.3 18.2 20.9 92.1 1021.2 0.0 NNE 0.0 NE 0.0 219.1
07:05 18.6 18.7 21.2 90.6 1021.2 2.4 ENE 6.1 E 0.0 356.1
07:10 18.8 18.9 21.9 89.6 1021.2 3.0 ENE 6.1 ENE 0.0 387.3
07:15 19.0 19.3 22.6 88.1 1021.2 1.4 ENE 6.1 NE 0.0 399.8
07:20 19.4 19.6 23.0 87.5 1021.3 0.8 ENE 3.4 NNE 0.0 411.4
07:25 19.8 20.0 23.5 85.2 1021.3 1.3 NE 6.1 NE 0.0 423.8
07:30 20.0 20.2 23.9 84.0 1021.4 0.5 ENE 6.1 ESE 0.0 433.8
07:35 20.3 20.5 24.1 83.6 1021.4 0.5 ENE 3.4 ENE 0.0 451.2
07:40 20.5 20.8 24.5 82.1 1021.4 2.1 NNE 6.1 N 0.0 466.0
07:45 20.7 21.2 25.1 80.7 1021.3 0.1 N 3.4 ENE 0.0 479.6
07:50 20.9 21.3 25.4 79.3 1021.3 0.5 NNE 6.1 NNE 0.0 492.5
07:55 21.0 21.7 25.8 78.4 1021.3 1.3 N 6.1 N 0.0 506.1
08:00 21.1 22.0 26.1 79.5 1021.3 1.0 NW 6.1 WNW 0.0 519.1
08:05 21.3 22.4 26.3 79.3 1021.2 1.8 NW 6.1 NNW 0.0 532.8
08:10 21.7 22.9 26.6 78.3 1021.2 2.0 NNW 6.1 NW 0.0 545.9
08:15 21.9 23.5 27.0 76.3 1021.2 1.0 NNW 6.1 NW 0.0 558.7
08:20 22.2 24.2 27.4 74.2 1021.2 1.9 E 6.1 NE 0.0 485.5
08:25 22.4 24.9 27.5 73.6 1021.1 2.2 SSE 6.1 SSE 0.0 584.5
08:30 22.7 25.4 27.7 72.0 1021.1 0.9 NE 6.1 NNE 0.0 596.2
08:35 23.3 26.2 28.4 68.9 1021.0 0.4 ENE 3.4 E 0.0 608.6
08:40 23.3 26.2 28.8 69.0 1021.0 0.8 W 6.1 WSW 0.0 620.7
08:45 23.5 26.1 28.8 69.3 1020.9 0.4 W 3.4 WSW 0.0 632.7
08:50 24.0 27.1 29.3 66.7 1020.8 1.9 ENE 6.1 NE 0.0 644.6
08:55 24.4 27.8 29.7 65.1 1020.8 0.1 SSW 3.4 ESE 0.0 656.6
09:00 24.8 28.3 29.5 66.2 1020.7 3.3 S 6.1 SSE 0.0 668.1
09:05 24.8 28.6 29.8 62.2 1020.7 3.4 ENE 8.8 ENE 0.0 678.1
09:10 25.1 29.4 30.4 59.6 1020.7 1.9 ESE 6.1 ESE 0.0 689.6
09:15 25.4 29.4 30.5 59.2 1020.7 1.1 NE 6.1 ENE 0.0 699.7
09:20 25.7 29.7 30.6 60.0 1020.6 3.7 E 8.8 SSE 0.0 710.0
09:25 25.9 30.1 31.0 57.9 1020.6 1.2 NNE 6.1 N 0.0 719.8
09:30 26.1 30.0 31.0 58.1 1020.6 0.2 WSW 3.4 S 0.0 730.1
09:35 26.5 30.5 31.3 56.1 1020.6 2.7 NNE 8.8 N 0.0 739.5
09:40 26.8 31.1 31.9 54.7 1020.6 0.8 NNE 3.4 NNE 0.0 747.2
09:45 27.0 31.4 31.9 54.8 1020.5 2.1 SSW 6.1 S 0.0 757.2
09:50 27.2 31.3 31.9 54.4 1020.5 3.0 NNW 8.8 NW 0.0 765.7
09:55 27.2 31.2 32.0 52.6 1020.5 2.7 WNW 6.1 NW 0.0 773.3
10:00 27.3 31.6 32.2 52.5 1020.5 0.9 WNW 6.1 NW 0.0 782.6
10:05 27.5 31.8 32.4 52.7 1020.4 0.9 WNW 8.8 WSW 0.0 790.5
10:10 27.6 32.3 32.7 50.9 1020.4 0.6 NW 6.1 WNW 0.0 796.3
10:15 27.8 33.2 33.0 50.5 1020.3 2.9 NNW 11.5 WNW 0.0 804.0
10:20 27.7 33.1 33.2 50.9 1020.3 3.1 WSW 11.5 WSW 0.0 812.0
10:25 28.1 34.4 33.7 48.9 1020.3 0.2 E 3.4 ESE 0.0 821.0
10:30 28.4 34.5 34.0 49.0 1020.3 2.0 SSE 6.1 SSE 0.0 824.0
10:35 28.6 34.2 34.0 50.1 1020.2 5.5 W 14.2 W 0.0 829.0
10:40 28.5 33.5 34.1 52.2 1020.2 5.8 SW 14.2 WSW 0.0 836.0
10:45 28.5 33.8 34.2 49.9 1020.2 3.3 SW 8.8 SSW 0.0 840.0
10:50 28.8 34.3 34.4 49.9 1020.1 2.9 W 11.5 W 0.0 846.0
10:55 28.7 34.4 34.6 49.1 1020.1 4.6 WSW 11.5 WSW 0.0 854.0
11:00 28.7 34.2 34.6 49.4 1020.1 3.4 WSW 8.8 W 0.0 859.0
11:05 28.7 34.5 34.9 46.8 1020.1 3.5 N 8.8 W 0.0 862.0
11:10 28.7 34.5 35.3 48.5 1020.0 5.5 NNW 11.5 NNW 0.0 866.0
11:15 28.7 34.8 35.6 47.7 1020.0 3.4 N 8.8 NE 0.0 868.0
11:20 28.9 34.4 35.9 49.0 1020.0 3.6 WNW 8.8 W 0.0 873.0
11:25 29.1 35.4 35.9 47.5 1019.9 2.4 ENE 11.5 NE 0.0 877.0
11:30 29.2 36.2 36.2 45.4 1019.9 6.8 E 11.5 ENE 0.0 876.0
11:35 29.2 36.4 36.0 45.8 1019.8 6.3 E 11.5 NE 0.0 881.0
11:40 29.3 35.7 36.0 45.5 1019.7 5.4 NNE 11.5 N 0.0 879.0
11:45 29.3 35.0 36.2 46.1 1019.7 5.5 NNE 14.2 NE 0.0 881.0
11:50 29.5 35.1 36.4 47.0 1019.7 3.6 WNW 8.8 NNE 0.0 885.0
11:55 29.5 36.1 36.6 46.0 1019.6 5.0 SW 11.5 W 0.0 891.0
12:00 29.6 36.2 36.6 44.3 1019.6 2.6 SW 6.1 SSW 0.0 893.0
12:05 29.9 36.7 36.8 47.8 1019.5 1.6 WNW 6.1 NW 0.0 894.0
12:10 29.9 37.5 36.9 40.8 1019.5 3.5 ESE 8.8 ESE 0.0 891.0
12:15 30.2 37.9 37.2 43.8 1019.4 4.0 N 14.2 NNW 0.0 886.0
12:20 30.4 37.3 37.4 44.0 1019.3 5.8 NNW 14.2 NNW 0.0 888.0
12:25 30.3 36.8 37.5 43.0 1019.3 8.0 NW 16.9 WNW 0.0 883.0
12:30 30.1 36.3 37.4 43.9 1019.3 7.5 NW 16.9 NW 0.0 884.0
12:35 30.0 36.3 37.2 42.2 1019.2 4.4 NNW 14.2 NNW 0.0 881.0
12:40 30.1 37.5 37.2 41.7 1019.2 1.8 SE 8.8 ESE 0.0 880.0
12:45 30.5 38.6 37.6 39.0 1019.1 3.1 N 16.9 N 0.0 880.0
12:50 30.7 37.4 37.8 41.6 1019.1 8.6 W 19.6 W 0.0 883.0
12:55 30.5 36.9 37.7 40.2 1019.1 8.7 W 16.9 W 0.0 880.0
13:00 30.4 37.1 37.6 40.7 1019.1 6.1 SW 14.2 SW 0.0 875.0
13:05 30.5 38.0 37.6 38.6 1019.0 4.2 SSW 14.2 SSW 0.0 871.0
13:10 30.4 38.3 37.5 37.2 1019.0 4.5 S 14.2 SSW 0.0 867.0
13:15 30.4 37.6 37.5 39.4 1018.9 10.0 WSW 16.9 WSW 0.0 797.3
13:20 30.5 37.3 37.6 40.5 1018.8 7.2 W 19.6 W 0.0 830.0
13:25 30.6 37.8 37.8 39.3 1018.9 5.1 SW 11.5 SSW 0.0 853.0
13:30 30.8 38.5 38.0 39.2 1018.8 3.9 SW 11.5 W 0.0 847.0
13:35 30.8 38.2 38.1 38.8 1018.7 5.1 W 11.5 NW 0.0 840.0
13:40 30.8 38.5 38.3 38.9 1018.7 6.0 NW 14.2 WNW 0.0 833.0
13:45 30.9 39.5 38.6 35.5 1018.7 1.5 N 6.1 NNW 0.0 827.0
13:50 31.1 39.0 38.8 39.1 1018.6 4.7 W 11.5 W 0.0 821.0
13:55 31.2 38.7 38.8 37.2 1018.5 5.2 WSW 11.5 WSW 0.0 813.0
14:00 31.1 38.3 38.7 37.1 1018.5 8.3 WNW 14.2 W 0.0 805.0
14:05 31.2 38.7 38.7 36.0 1018.4 5.1 WSW 11.5 W 0.0 798.5
14:10 31.2 38.4 38.6 36.8 1018.4 8.0 WSW 16.9 W 0.0 662.0
14:15 31.3 38.8 38.5 35.4 1018.4 2.6 WSW 14.2 W 0.0 741.4
14:20 31.5 38.8 38.7 34.7 1018.3 7.1 W 14.2 W 0.0 772.1
14:25 31.5 38.8 38.6 35.8 1018.3 3.7 W 11.5 WNW 0.0 764.1
14:30 31.4 39.3 38.5 33.4 1018.2 3.9 SSW 11.5 S 0.0 754.7
14:35 31.5 39.9 38.5 32.7 1018.2 2.9 SE 8.8 SSE 0.0 746.1
14:40 31.7 40.0 38.5 35.3 1018.1 3.3 WNW 8.8 NW 0.0 735.0
14:45 32.0 39.7 38.7 35.9 1018.1 5.5 WNW 8.8 NW 0.0 722.9
14:50 32.1 39.6 38.8 35.3 1018.0 5.9 NW 11.5 N 0.0 712.5
14:55 32.0 39.3 38.9 34.7 1018.0 4.4 WNW 11.5 WNW 0.0 702.0
15:00 31.9 39.5 38.9 36.1 1018.0 5.0 WNW 11.5 WNW 0.0 692.7
15:05 32.0 39.0 38.8 34.9 1017.9 5.1 NNW 8.8 WNW 0.0 681.5
15:10 32.0 39.2 38.8 36.3 1017.9 5.9 WNW 14.2 WNW 0.0 670.2
15:15 32.1 38.8 38.7 35.4 1017.9 4.9 WSW 11.5 W 0.0 660.2
15:20 31.8 39.1 38.5 35.2 1017.8 3.7 SSW 8.8 NW 0.0 647.5
15:25 32.1 38.7 38.3 36.2 1017.8 4.8 NW 8.8 NW 0.0 635.3
15:30 32.3 38.7 38.3 35.3 1017.7 1.6 WNW 6.1 NW 0.0 621.4
15:35 32.6 38.9 38.3 36.2 1017.6 3.0 W 11.5 WNW 0.0 610.1
15:40 32.7 38.7 38.4 36.6 1017.5 3.6 W 8.8 W 0.0 598.8
15:45 32.7 38.7 38.4 35.5 1017.5 4.4 W 14.2 W 0.0 584.7
15:50 32.7 38.4 38.2 37.0 1017.5 3.4 NW 11.5 NNW 0.0 570.6
15:55 32.8 38.3 38.1 34.6 1017.4 3.1 WNW 11.5 NW 0.0 558.0
16:00 32.5 37.8 38.0 37.7 1017.4 7.5 W 14.2 W 0.0 543.3
16:05 32.3 37.2 37.8 37.4 1017.3 7.9 W 14.2 W 0.0 533.9
16:10 32.2 36.7 37.6 36.3 1017.3 7.5 WSW 11.5 WSW 0.0 522.4
16:15 32.2 36.9 37.4 36.6 1017.3 5.7 WSW 8.8 W 0.0 506.5
16:20 32.3 36.7 37.3 36.7 1017.3 6.7 WSW 14.2 SW 0.0 485.0
16:25 31.7 36.1 37.0 39.7 1017.2 9.4 SW 16.9 SW 0.0 465.9
16:30 31.6 35.7 36.6 40.5 1017.2 9.5 SW 19.6 SW 0.0 455.7
16:35 31.4 35.1 36.3 41.0 1017.2 10.7 SW 19.6 WSW 0.0 447.0
16:40 31.3 34.5 35.9 41.1 1017.2 10.7 SSW 19.6 S 0.0 431.0
16:45 31.1 34.0 35.6 41.1 1017.2 11.1 WSW 19.6 SSW 0.0 417.8
16:50 31.0 33.8 35.4 40.9 1017.2 13.0 SW 22.3 SW 0.0 401.7
16:55 30.8 33.4 35.0 41.0 1017.1 10.0 SSW 16.9 SW 0.0 373.4
17:00 30.8 33.3 34.7 41.5 1017.2 10.0 SW 16.9 SW 0.0 329.1
17:05 30.7 32.6 34.3 41.6 1017.1 10.3 SSW 16.9 SSW 0.0 308.7
17:10 30.5 32.5 33.8 41.5 1017.1 9.9 SSW 19.6 S 0.0 320.1
17:15 30.4 32.1 33.3 42.0 1017.1 9.7 SSW 19.6 S 0.0 309.8
Màxima 32.9 40.0 38.9 98.5 1021.7 13.0 SW 22.3 SW 0.0 894.0
Mínima 15.5 13.9 17.7 32.7 1017.1
Total 0.0